Time;durP1;ratioP1;P1;durP2;ratioP2;P2;SDS_P1;SDS_P2;PMS_P1;PMS_P2;Temp;Humidity;BMP_temperature;BMP_pressure;BME280_temperature;BME280_humidity;BME280_pressure;Samples;Min_cycle;Max_cycle;Signal;HPM_P1;HPM_P2
2022/07/03 00:01:27;;;;;;;;;;;17.40;99.90;;;;;;4590618;19;20098;-32
2022/07/03 00:02:58;;;;;;;;;;;17.40;99.90;;;;;;4591806;19;19988;-40
2022/07/03 00:04:29;;;;;;;;;;;17.40;99.90;;;;;;4591060;19;19915;-41
2022/07/03 00:06:02;;;;;;;;;;;17.40;99.90;;;;;;4591909;19;19930;-32
2022/07/03 00:07:33;;;;;;;;;;;17.40;99.90;;;;;;4591735;19;20381;-37
2022/07/03 00:09:04;;;;;;;;;;;17.40;99.90;;;;;;4591860;19;19918;-33
2022/07/03 00:10:35;;;;;;;;;;;17.30;99.90;;;;;;4591436;19;20260;-32
2022/07/03 00:12:06;;;;;;;;;;;17.30;99.90;;;;;;4591907;19;19970;-38
2022/07/03 00:13:37;;;;;;;;;;;17.30;99.90;;;;;;4592068;19;20331;-35
2022/07/03 00:15:08;;;;;;;;;;;17.30;99.90;;;;;;4591071;19;19942;-32
2022/07/03 00:16:40;;;;;;;;;;;17.30;99.90;;;;;;4591177;19;19915;-33
2022/07/03 00:18:19;;;;;;;;;;;17.30;99.90;;;;;;4591296;19;19963;-39
2022/07/03 00:19:50;;;;;;;;;;;17.30;99.90;;;;;;4591998;19;19920;-35
2022/07/03 00:21:28;;;;;;;;;;;17.30;99.90;;;;;;4591249;19;20327;-32
2022/07/03 00:22:59;;;;;;;;;;;17.30;99.90;;;;;;4591176;19;20260;-37
2022/07/03 00:24:32;;;;;;;;;;;17.30;99.90;;;;;;4589590;19;19938;-36
2022/07/03 00:26:03;;;;;;;;;;;17.20;99.90;;;;;;4590996;19;20329;-37
2022/07/03 00:27:34;;;;;;;;;;;17.20;99.90;;;;;;4591051;19;19974;-38
2022/07/03 00:29:06;;;;;;;;;;;17.30;99.90;;;;;;4590856;19;19914;-34
2022/07/03 00:30:37;;;;;;;;;;;17.20;99.90;;;;;;4588591;19;19982;-36
2022/07/03 00:32:09;;;;;;;;;;;17.20;99.90;;;;;;4590419;19;20357;-34
2022/07/03 00:33:40;;;;;;;;;;;17.20;99.90;;;;;;4591129;19;19919;-34
2022/07/03 00:35:14;;;;;;;;;;;17.20;99.90;;;;;;4591361;19;19927;-35
2022/07/03 00:36:46;;;;;;;;;;;17.20;99.90;;;;;;4591269;19;19943;-36
2022/07/03 00:38:17;;;;;;;;;;;17.20;99.90;;;;;;4590418;19;19934;-38
2022/07/03 00:39:48;;;;;;;;;;;17.20;99.90;;;;;;4589440;19;20251;-34
2022/07/03 00:41:30;;;;;;;;;;;17.20;99.90;;;;;;4590498;19;19979;-33
2022/07/03 00:43:01;;;;;;;;;;;17.20;99.90;;;;;;4591431;19;19919;-34
2022/07/03 00:44:33;;;;;;;;;;;17.20;99.90;;;;;;4589892;19;19970;-35
2022/07/03 00:46:10;;;;;;;;;;;17.10;99.90;;;;;;4590374;19;20333;-34
2022/07/03 00:47:41;;;;;;;;;;;17.10;99.90;;;;;;4590924;19;19914;-33
2022/07/03 00:49:12;;;;;;;;;;;17.10;99.90;;;;;;4589774;19;19974;-35
2022/07/03 00:50:52;;;;;;;;;;;17.10;99.90;;;;;;4593978;19;19932;-33
2022/07/03 00:52:23;;;;;;;;;;;17.10;99.90;;;;;;4595639;19;19918;-32
2022/07/03 00:53:57;;;;;;;;;;;17.10;99.90;;;;;;4594585;19;19919;-37
2022/07/03 00:55:28;;;;;;;;;;;17.10;99.90;;;;;;4594981;19;20240;-39
2022/07/03 00:57:00;;;;;;;;;;;17.10;99.90;;;;;;4595826;19;19919;-37
2022/07/03 00:58:33;;;;;;;;;;;17.10;99.90;;;;;;4595314;19;19932;-35
2022/07/03 01:00:05;;;;;;;;;;;17.10;99.90;;;;;;4595550;19;19915;-36
2022/07/03 01:01:37;;;;;;;;;;;17.10;99.90;;;;;;4596307;19;19978;-37
2022/07/03 01:03:10;;;;;;;;;;;17.10;99.90;;;;;;4595069;19;19979;-35
2022/07/03 01:04:44;;;;;;;;;;;17.00;99.90;;;;;;4594070;19;20268;-37
2022/07/03 01:06:16;;;;;;;;;;;17.10;99.90;;;;;;4595171;19;19918;-34
2022/07/03 01:08:05;;;;;;;;;;;17.00;99.90;;;;;;4595921;19;20321;-40
2022/07/03 01:09:42;;;;;;;;;;;17.00;99.90;;;;;;4595679;19;19921;-38
2022/07/03 01:11:25;;;;;;;;;;;17.10;99.90;;;;;;4595138;19;19926;-38
2022/07/03 01:12:56;;;;;;;;;;;17.00;99.90;;;;;;4594196;19;19915;-38
2022/07/03 01:14:28;;;;;;;;;;;17.00;99.90;;;;;;4594617;19;19936;-38
2022/07/03 01:15:59;;;;;;;;;;;17.00;99.90;;;;;;4594102;19;20300;-37
2022/07/03 01:17:40;;;;;;;;;;;17.00;99.90;;;;;;4594330;19;19941;-40
2022/07/03 01:19:34;;;;;;;;;;;17.00;99.90;;;;;;4593740;19;19914;-39
2022/07/03 01:21:12;;;;;;;;;;;17.00;99.90;;;;;;4594980;19;19918;-36
2022/07/03 01:22:44;;;;;;;;;;;17.00;99.90;;;;;;4595646;19;19919;-37
2022/07/03 01:24:18;;;;;;;;;;;17.00;99.90;;;;;;4594565;19;20364;-40
2022/07/03 01:25:50;;;;;;;;;;;16.90;99.90;;;;;;4594823;19;19918;-37
2022/07/03 01:27:27;;;;;;;;;;;16.90;99.90;;;;;;4594841;19;19911;-33
2022/07/03 01:28:59;;;;;;;;;;;16.90;99.90;;;;;;4595298;19;19922;-36
2022/07/03 01:30:31;;;;;;;;;;;16.90;99.90;;;;;;4593675;19;19927;-34
2022/07/03 01:32:02;;;;;;;;;;;16.90;99.90;;;;;;4594373;19;19915;-37
2022/07/03 01:33:33;;;;;;;;;;;16.90;99.90;;;;;;4593543;19;19911;-35
2022/07/03 01:35:04;;;;;;;;;;;16.90;99.90;;;;;;4594477;19;19936;-38
2022/07/03 01:36:35;;;;;;;;;;;16.90;99.90;;;;;;4593326;19;20356;-38
2022/07/03 01:38:09;;;;;;;;;;;16.90;99.90;;;;;;4593347;19;19911;-40
2022/07/03 01:39:41;;;;;;;;;;;16.90;99.90;;;;;;4593455;19;19919;-38
2022/07/03 01:41:12;;;;;;;;;;;16.90;99.90;;;;;;4593851;19;19997;-39
2022/07/03 01:42:44;;;;;;;;;;;16.90;99.90;;;;;;4594099;19;19923;-35
2022/07/03 01:44:15;;;;;;;;;;;16.90;99.90;;;;;;4593773;19;19918;-32
2022/07/03 01:45:47;;;;;;;;;;;16.80;99.90;;;;;;4594616;19;20321;-34
2022/07/03 01:47:18;;;;;;;;;;;16.80;99.90;;;;;;4594707;19;20329;-38
2022/07/03 01:48:49;;;;;;;;;;;16.80;99.90;;;;;;4594167;19;19915;-34
2022/07/03 01:50:20;;;;;;;;;;;16.80;99.90;;;;;;4594505;19;20279;-34
2022/07/03 01:51:51;;;;;;;;;;;16.80;99.90;;;;;;4593180;19;19921;-35
2022/07/03 01:53:25;;;;;;;;;;;16.80;99.90;;;;;;4593941;19;20308;-37
2022/07/03 01:54:57;;;;;;;;;;;16.80;99.90;;;;;;4593953;19;19936;-35
2022/07/03 01:56:28;;;;;;;;;;;16.80;99.90;;;;;;4593257;19;19954;-38
2022/07/03 01:57:59;;;;;;;;;;;16.80;99.90;;;;;;4593493;19;19919;-42
2022/07/03 01:59:30;;;;;;;;;;;16.80;99.90;;;;;;4593840;19;19990;-39
2022/07/03 02:01:04;;;;;;;;;;;16.80;99.90;;;;;;4592853;19;19911;-36
2022/07/03 02:02:37;;;;;;;;;;;16.80;99.90;;;;;;4594284;19;19922;-33
2022/07/03 02:04:23;;;;;;;;;;;16.80;99.90;;;;;;4592671;19;20412;-36
2022/07/03 02:06:03;;;;;;;;;;;16.80;99.90;;;;;;4594614;19;19919;-34
2022/07/03 02:07:43;;;;;;;;;;;16.80;99.90;;;;;;4593934;19;19918;-42
2022/07/03 02:09:14;;;;;;;;;;;16.80;99.90;;;;;;4592979;19;19922;-34
2022/07/03 02:10:47;;;;;;;;;;;16.80;99.90;;;;;;4593553;19;19907;-35
2022/07/03 02:12:18;;;;;;;;;;;16.80;99.90;;;;;;4593138;19;20368;-35
2022/07/03 02:13:51;;;;;;;;;;;16.80;99.90;;;;;;4592633;19;19914;-38
2022/07/03 02:15:29;;;;;;;;;;;16.80;99.90;;;;;;4593055;19;19914;-37
2022/07/03 02:17:21;;;;;;;;;;;16.80;99.90;;;;;;4593478;19;19915;-35
2022/07/03 02:19:19;;;;;;;;;;;16.80;99.90;;;;;;4593531;19;20325;-32
2022/07/03 02:20:53;;;;;;;;;;;16.80;99.90;;;;;;4593342;19;19919;-32
2022/07/03 02:22:31;;;;;;;;;;;16.80;99.90;;;;;;4593873;19;20002;-36
2022/07/03 02:24:05;;;;;;;;;;;16.80;99.90;;;;;;4593532;19;19914;-33
2022/07/03 02:25:36;;;;;;;;;;;16.70;99.90;;;;;;4592713;19;19918;-33
2022/07/03 02:27:08;;;;;;;;;;;16.70;99.90;;;;;;4593408;19;19911;-36
2022/07/03 02:28:39;;;;;;;;;;;16.70;99.90;;;;;;4592250;19;20361;-35
2022/07/03 02:30:11;;;;;;;;;;;16.70;99.90;;;;;;4592597;19;19914;-39
2022/07/03 02:31:43;;;;;;;;;;;16.70;99.90;;;;;;4592551;19;19922;-33
2022/07/03 02:33:14;;;;;;;;;;;16.70;99.90;;;;;;4593635;19;19918;-32
2022/07/03 02:35:00;;;;;;;;;;;16.70;99.90;;;;;;4592447;19;19923;-34
2022/07/03 02:36:31;;;;;;;;;;;16.70;99.90;;;;;;4593065;19;19947;-34
2022/07/03 02:38:08;;;;;;;;;;;16.70;99.90;;;;;;4593720;19;19929;-33
2022/07/03 02:39:50;;;;;;;;;;;16.70;99.90;;;;;;4592437;19;19935;-33
2022/07/03 02:41:23;;;;;;;;;;;16.70;99.90;;;;;;4594651;19;19918;-34
2022/07/03 02:43:03;;;;;;;;;;;16.70;99.90;;;;;;4593293;19;19922;-32
2022/07/03 02:44:46;;;;;;;;;;;16.60;99.90;;;;;;4591708;19;20330;-33
2022/07/03 02:48:17;;;;;;;;;;;16.60;99.90;;;;;;4591130;19;19911;-35
2022/07/03 02:50:04;;;;;;;;;;;16.60;99.90;;;;;;4591265;19;19915;-32
2022/07/03 02:51:36;;;;;;;;;;;16.60;99.90;;;;;;4590376;19;20344;-34
2022/07/03 02:53:08;;;;;;;;;;;16.60;99.90;;;;;;4591166;19;19931;-34
2022/07/03 02:54:49;;;;;;;;;;;16.60;99.90;;;;;;4591407;19;19960;-35
2022/07/03 02:56:23;;;;;;;;;;;16.60;99.90;;;;;;4591295;19;19956;-33
2022/07/03 02:57:55;;;;;;;;;;;16.60;99.90;;;;;;4591584;19;19926;-35
2022/07/03 02:59:49;;;;;;;;;;;16.60;99.90;;;;;;4590250;19;19923;-33
2022/07/03 03:01:30;;;;;;;;;;;16.60;99.90;;;;;;4590726;19;19915;-32
2022/07/03 03:03:01;;;;;;;;;;;16.60;99.90;;;;;;4590827;19;19915;-40
2022/07/03 03:04:33;;;;;;;;;;;16.60;99.90;;;;;;4589579;19;19926;-35
2022/07/03 03:06:08;;;;;;;;;;;16.60;99.90;;;;;;4589997;19;19911;-34
2022/07/03 03:07:58;;;;;;;;;;;16.60;99.90;;;;;;4589724;19;19978;-37
2022/07/03 03:09:32;;;;;;;;;;;16.60;99.90;;;;;;4590138;19;19911;-35
2022/07/03 03:11:06;;;;;;;;;;;16.60;99.90;;;;;;4589703;19;19923;-35
2022/07/03 03:12:37;;;;;;;;;;;16.60;99.90;;;;;;4586909;19;19940;-33
2022/07/03 03:14:11;;;;;;;;;;;16.60;99.90;;;;;;4590424;19;20405;-33
2022/07/03 03:16:00;;;;;;;;;;;16.60;99.90;;;;;;4590154;19;19927;-33
2022/07/03 03:17:43;;;;;;;;;;;16.70;99.90;;;;;;4590683;19;20025;-33
2022/07/03 03:19:14;;;;;;;;;;;16.60;99.90;;;;;;4590249;19;20256;-32
2022/07/03 03:20:46;;;;;;;;;;;16.60;99.90;;;;;;4590608;19;19919;-34
2022/07/03 03:22:19;;;;;;;;;;;16.60;99.90;;;;;;4590104;19;19931;-37
2022/07/03 03:23:52;;;;;;;;;;;16.70;99.90;;;;;;4589889;19;19923;-34
2022/07/03 03:25:23;;;;;;;;;;;16.70;99.90;;;;;;4588041;19;19915;-33
2022/07/03 03:26:54;;;;;;;;;;;16.70;99.90;;;;;;4588995;19;19923;-32
2022/07/03 03:28:25;;;;;;;;;;;16.70;99.90;;;;;;4588466;19;19942;-34
2022/07/03 03:29:56;;;;;;;;;;;16.70;99.90;;;;;;4588380;19;19915;-32
2022/07/03 03:31:27;;;;;;;;;;;16.70;99.90;;;;;;4588423;19;20388;-33
2022/07/03 03:32:58;;;;;;;;;;;16.70;99.90;;;;;;4590675;19;19922;-35
2022/07/03 03:34:30;;;;;;;;;;;16.70;99.90;;;;;;4590389;19;19925;-39
2022/07/03 03:36:01;;;;;;;;;;;16.70;99.90;;;;;;4589878;19;19955;-36
2022/07/03 03:37:32;;;;;;;;;;;16.70;99.90;;;;;;4589692;19;19922;-34
2022/07/03 03:39:03;;;;;;;;;;;16.70;99.90;;;;;;4589563;19;19915;-33
2022/07/03 03:40:34;;;;;;;;;;;16.70;99.90;;;;;;4588994;19;19919;-34
2022/07/03 03:42:05;;;;;;;;;;;16.70;99.90;;;;;;4589918;19;19915;-36
2022/07/03 03:43:36;;;;;;;;;;;16.70;99.90;;;;;;4589734;19;19930;-36
2022/07/03 03:45:07;;;;;;;;;;;16.70;99.90;;;;;;4589158;19;19983;-36
2022/07/03 03:46:38;;;;;;;;;;;16.70;99.90;;;;;;4592751;19;20362;-33
2022/07/03 03:48:09;;;;;;;;;;;16.70;99.90;;;;;;4592807;19;19922;-35
2022/07/03 03:49:40;;;;;;;;;;;16.70;99.90;;;;;;4591911;19;19919;-31
2022/07/03 03:51:12;;;;;;;;;;;16.70;99.90;;;;;;4591507;19;19919;-34
2022/07/03 03:52:43;;;;;;;;;;;16.70;99.90;;;;;;4591515;19;19994;-34
2022/07/03 03:54:14;;;;;;;;;;;16.70;99.90;;;;;;4591210;19;19915;-41
2022/07/03 03:56:01;;;;;;;;;;;16.70;99.90;;;;;;4590503;19;19910;-39
2022/07/03 03:57:32;;;;;;;;;;;16.80;99.90;;;;;;4590683;19;19927;-40
2022/07/03 03:59:03;;;;;;;;;;;16.80;99.90;;;;;;4590577;19;19994;-32
2022/07/03 04:00:34;;;;;;;;;;;16.70;99.90;;;;;;4590036;19;19943;-38
2022/07/03 04:02:05;;;;;;;;;;;16.80;99.90;;;;;;4590030;19;19915;-36
2022/07/03 04:03:36;;;;;;;;;;;16.80;99.90;;;;;;4592375;19;20002;-38
2022/07/03 04:05:07;;;;;;;;;;;16.80;99.90;;;;;;4591498;19;19911;-38
2022/07/03 04:06:38;;;;;;;;;;;16.80;99.90;;;;;;4591887;19;19923;-37
2022/07/03 04:08:10;;;;;;;;;;;16.80;99.90;;;;;;4591279;19;20333;-35
2022/07/03 04:09:41;;;;;;;;;;;16.80;99.90;;;;;;4591060;19;19927;-35
2022/07/03 04:11:12;;;;;;;;;;;16.90;99.90;;;;;;4591010;19;20013;-37
2022/07/03 04:12:43;;;;;;;;;;;16.90;99.90;;;;;;4590052;19;20008;-36
2022/07/03 04:14:14;;;;;;;;;;;16.90;99.90;;;;;;4590073;19;19928;-36
2022/07/03 04:15:45;;;;;;;;;;;16.90;99.90;;;;;;4589747;19;19946;-33
2022/07/03 04:17:17;;;;;;;;;;;16.90;99.90;;;;;;4592876;19;19918;-38
2022/07/03 04:18:48;;;;;;;;;;;16.90;99.90;;;;;;4592006;19;19915;-41
2022/07/03 04:20:19;;;;;;;;;;;16.90;99.90;;;;;;4591495;19;19936;-36
2022/07/03 04:21:51;;;;;;;;;;;16.90;99.90;;;;;;4590806;19;19915;-39
2022/07/03 04:23:22;;;;;;;;;;;16.90;99.90;;;;;;4590062;19;19935;-33
2022/07/03 04:24:53;;;;;;;;;;;16.90;99.90;;;;;;4588372;19;19914;-42
2022/07/03 04:26:24;;;;;;;;;;;17.00;99.90;;;;;;4588464;19;19921;-33
2022/07/03 04:27:55;;;;;;;;;;;17.00;99.90;;;;;;4592107;19;19915;-35
2022/07/03 04:29:26;;;;;;;;;;;17.00;99.90;;;;;;4591466;19;19915;-40
2022/07/03 04:30:57;;;;;;;;;;;17.00;99.90;;;;;;4590990;19;19919;-36
2022/07/03 04:32:28;;;;;;;;;;;17.00;99.90;;;;;;4591083;19;19918;-35
2022/07/03 04:33:59;;;;;;;;;;;17.00;99.90;;;;;;4590658;19;19915;-36
2022/07/03 04:35:30;;;;;;;;;;;17.00;99.90;;;;;;4590318;19;20241;-36
2022/07/03 04:37:02;;;;;;;;;;;17.00;99.90;;;;;;4589824;19;19917;-35
2022/07/03 04:38:33;;;;;;;;;;;17.00;99.90;;;;;;4588742;19;19911;-34
2022/07/03 04:40:04;;;;;;;;;;;17.00;99.90;;;;;;4588888;19;19955;-38
2022/07/03 04:41:35;;;;;;;;;;;17.10;99.90;;;;;;4589411;19;19984;-39
2022/07/03 04:43:06;;;;;;;;;;;17.10;99.90;;;;;;4591676;19;19911;-33
2022/07/03 04:44:38;;;;;;;;;;;17.10;99.90;;;;;;4590616;19;20344;-35
2022/07/03 04:46:09;;;;;;;;;;;17.10;99.90;;;;;;4590713;19;19915;-35
2022/07/03 04:47:40;;;;;;;;;;;17.10;99.90;;;;;;4590420;19;19933;-33
2022/07/03 04:49:11;;;;;;;;;;;17.10;99.90;;;;;;4588983;19;19933;-35
2022/07/03 04:50:42;;;;;;;;;;;17.20;99.90;;;;;;4590024;19;19911;-34
2022/07/03 04:52:14;;;;;;;;;;;17.10;99.90;;;;;;4589118;19;19946;-37
2022/07/03 04:53:45;;;;;;;;;;;17.20;99.90;;;;;;4589178;19;19922;-32
2022/07/03 04:55:16;;;;;;;;;;;17.20;99.90;;;;;;4589169;19;19938;-33
2022/07/03 04:56:48;;;;;;;;;;;17.20;99.90;;;;;;4591746;19;19937;-35
2022/07/03 04:58:18;;;;;;;;;;;17.20;99.90;;;;;;4591030;19;19919;-38
2022/07/03 04:59:49;;;;;;;;;;;17.30;99.90;;;;;;4590776;19;19911;-37
2022/07/03 05:01:20;;;;;;;;;;;17.30;99.90;;;;;;4590436;19;19926;-33
2022/07/03 05:02:52;;;;;;;;;;;17.30;99.90;;;;;;4590019;19;19926;-40
2022/07/03 05:04:22;;;;;;;;;;;17.30;99.90;;;;;;4589126;19;19941;-34
2022/07/03 05:05:53;;;;;;;;;;;17.30;99.90;;;;;;4586637;19;19918;-33
2022/07/03 05:07:24;;;;;;;;;;;17.40;99.90;;;;;;4588142;19;20333;-36
2022/07/03 05:08:56;;;;;;;;;;;17.40;99.90;;;;;;4588779;19;20250;-35
2022/07/03 05:10:27;;;;;;;;;;;17.40;99.90;;;;;;4591225;19;19971;-33
2022/07/03 05:11:58;;;;;;;;;;;17.50;99.90;;;;;;4591054;19;19982;-36
2022/07/03 05:13:29;;;;;;;;;;;17.40;99.90;;;;;;4591248;19;19915;-39
2022/07/03 05:15:00;;;;;;;;;;;17.40;99.90;;;;;;4587647;19;19919;-35
2022/07/03 05:16:31;;;;;;;;;;;17.50;99.90;;;;;;4589121;19;20336;-38
2022/07/03 05:18:02;;;;;;;;;;;17.50;99.90;;;;;;4589133;19;19932;-37
2022/07/03 05:19:32;;;;;;;;;;;17.50;99.90;;;;;;4589329;19;20256;-37
2022/07/03 05:21:04;;;;;;;;;;;17.60;99.90;;;;;;4588749;19;19974;-32
2022/07/03 05:22:34;;;;;;;;;;;17.50;99.90;;;;;;4590681;19;19926;-40
2022/07/03 05:24:06;;;;;;;;;;;17.60;99.90;;;;;;4590215;19;19930;-34
2022/07/03 05:25:37;;;;;;;;;;;17.60;99.90;;;;;;4589962;19;19923;-35
2022/07/03 05:27:08;;;;;;;;;;;17.60;99.90;;;;;;4589636;19;19975;-38
2022/07/03 05:28:39;;;;;;;;;;;17.70;99.90;;;;;;4587758;19;19927;-37
2022/07/03 05:30:10;;;;;;;;;;;17.70;99.90;;;;;;4588806;19;19936;-36
2022/07/03 05:31:41;;;;;;;;;;;17.70;99.90;;;;;;4588144;19;19934;-37
2022/07/03 05:33:12;;;;;;;;;;;17.70;99.90;;;;;;4587414;19;19915;-39
2022/07/03 05:34:43;;;;;;;;;;;17.70;99.90;;;;;;4590660;19;20587;-35
2022/07/03 05:36:14;;;;;;;;;;;17.80;99.90;;;;;;4592462;19;19914;-34
2022/07/03 05:37:45;;;;;;;;;;;17.80;99.90;;;;;;4594694;19;19923;-36
2022/07/03 05:39:31;;;;;;;;;;;17.80;99.90;;;;;;4593144;19;19919;-40
2022/07/03 05:41:02;;;;;;;;;;;17.80;99.90;;;;;;4594726;19;19926;-36
2022/07/03 05:42:33;;;;;;;;;;;17.80;99.90;;;;;;4594078;19;19915;-33
2022/07/03 05:44:04;;;;;;;;;;;17.90;99.90;;;;;;4593631;19;20379;-36
2022/07/03 05:45:35;;;;;;;;;;;17.90;99.90;;;;;;4594525;19;20340;-32
2022/07/03 05:47:06;;;;;;;;;;;17.90;99.90;;;;;;4594785;19;19987;-40
2022/07/03 05:48:37;;;;;;;;;;;18.00;99.90;;;;;;4594665;19;20345;-38
2022/07/03 05:50:08;;;;;;;;;;;18.00;99.90;;;;;;4592013;19;20008;-36
2022/07/03 05:51:40;;;;;;;;;;;18.00;99.90;;;;;;4594048;19;19983;-39
2022/07/03 05:53:11;;;;;;;;;;;18.00;99.90;;;;;;4595043;19;19943;-37
2022/07/03 05:54:42;;;;;;;;;;;18.00;99.90;;;;;;4593901;19;19919;-38
2022/07/03 05:56:13;;;;;;;;;;;18.00;99.90;;;;;;4594500;19;20632;-40
2022/07/03 05:57:44;;;;;;;;;;;18.00;99.90;;;;;;4591801;19;19929;-35
2022/07/03 05:59:15;;;;;;;;;;;18.10;99.90;;;;;;4592536;19;19917;-37
2022/07/03 06:00:46;;;;;;;;;;;18.10;99.90;;;;;;4593510;19;19930;-32
2022/07/03 06:02:17;;;;;;;;;;;18.10;99.90;;;;;;4594289;19;19919;-34
2022/07/03 06:03:48;;;;;;;;;;;18.10;99.90;;;;;;4592809;19;19918;-32
2022/07/03 06:05:19;;;;;;;;;;;18.10;99.90;;;;;;4592964;19;19920;-39
2022/07/03 06:06:50;;;;;;;;;;;18.20;99.90;;;;;;4593896;19;19915;-34
2022/07/03 06:08:21;;;;;;;;;;;18.20;99.90;;;;;;4593940;19;20333;-33
2022/07/03 06:09:52;;;;;;;;;;;18.30;99.90;;;;;;4594579;19;19922;-33
2022/07/03 06:11:23;;;;;;;;;;;18.20;99.90;;;;;;4593945;19;19922;-40
2022/07/03 06:12:54;;;;;;;;;;;18.30;99.90;;;;;;4592938;19;20333;-37
2022/07/03 06:14:25;;;;;;;;;;;18.30;99.90;;;;;;4594961;19;19915;-41
2022/07/03 06:15:56;;;;;;;;;;;18.30;99.90;;;;;;4594379;19;20277;-43
2022/07/03 06:17:27;;;;;;;;;;;18.30;99.90;;;;;;4593886;19;19967;-33
2022/07/03 06:18:58;;;;;;;;;;;18.30;99.90;;;;;;4594430;19;19918;-33
2022/07/03 06:20:29;;;;;;;;;;;18.40;99.90;;;;;;4594532;19;20256;-37
2022/07/03 06:22:00;;;;;;;;;;;18.40;99.90;;;;;;4593681;19;19965;-34
2022/07/03 06:23:31;;;;;;;;;;;18.40;99.90;;;;;;4592411;19;20265;-42
2022/07/03 06:25:02;;;;;;;;;;;18.50;99.90;;;;;;4591102;19;20250;-39
2022/07/03 06:26:33;;;;;;;;;;;18.40;99.90;;;;;;4591974;19;19918;-32
2022/07/03 06:28:05;;;;;;;;;;;18.50;99.90;;;;;;4591738;19;19922;-33
2022/07/03 06:29:35;;;;;;;;;;;18.50;99.90;;;;;;4595681;19;19919;-37
2022/07/03 06:31:06;;;;;;;;;;;18.50;99.90;;;;;;4593346;19;19943;-34
2022/07/03 06:32:37;;;;;;;;;;;18.50;99.90;;;;;;4593986;19;19911;-37
2022/07/03 06:34:09;;;;;;;;;;;18.50;99.90;;;;;;4592137;19;20631;-33
2022/07/03 06:35:40;;;;;;;;;;;18.50;99.90;;;;;;4591823;19;19978;-32
2022/07/03 06:37:11;;;;;;;;;;;18.50;99.90;;;;;;4590264;19;19906;-35
2022/07/03 06:38:42;;;;;;;;;;;18.50;99.90;;;;;;4590874;19;19946;-33
2022/07/03 06:40:13;;;;;;;;;;;18.60;99.90;;;;;;4592558;19;20253;-35
2022/07/03 06:41:44;;;;;;;;;;;18.50;99.90;;;;;;4593558;19;19978;-37
2022/07/03 06:43:15;;;;;;;;;;;18.60;99.90;;;;;;4593146;19;19911;-36
2022/07/03 06:44:46;;;;;;;;;;;18.60;99.90;;;;;;4590590;19;20428;-33
2022/07/03 06:46:17;;;;;;;;;;;18.50;99.90;;;;;;4593479;19;19922;-33
2022/07/03 06:47:48;;;;;;;;;;;18.60;99.90;;;;;;4593201;19;19929;-31
2022/07/03 06:49:19;;;;;;;;;;;18.60;99.90;;;;;;4591231;19;19931;-32
2022/07/03 06:50:50;;;;;;;;;;;18.70;99.90;;;;;;4590921;19;19919;-40
2022/07/03 06:52:21;;;;;;;;;;;18.70;99.90;;;;;;4591158;19;20328;-34
2022/07/03 06:53:52;;;;;;;;;;;18.70;99.90;;;;;;4594001;19;19949;-32
2022/07/03 06:55:23;;;;;;;;;;;18.70;99.90;;;;;;4593552;19;20381;-32
2022/07/03 06:56:54;;;;;;;;;;;18.70;99.90;;;;;;4593198;19;19923;-33
2022/07/03 06:58:25;;;;;;;;;;;18.70;99.90;;;;;;4592929;19;19925;-32
2022/07/03 06:59:56;;;;;;;;;;;18.80;99.90;;;;;;4593154;19;19922;-34
2022/07/03 07:01:27;;;;;;;;;;;18.80;99.90;;;;;;4593136;19;19921;-33
2022/07/03 07:02:58;;;;;;;;;;;18.70;99.90;;;;;;4591764;19;19915;-37
2022/07/03 07:04:30;;;;;;;;;;;18.80;99.90;;;;;;4589582;19;20252;-34
2022/07/03 07:06:01;;;;;;;;;;;18.80;99.90;;;;;;4592850;19;19918;-35
2022/07/03 07:07:31;;;;;;;;;;;18.80;99.90;;;;;;4592850;19;19978;-32
2022/07/03 07:09:02;;;;;;;;;;;18.80;99.90;;;;;;4590638;19;19915;-40
2022/07/03 07:10:34;;;;;;;;;;;18.80;99.90;;;;;;4591112;19;20320;-36
2022/07/03 07:12:05;;;;;;;;;;;18.80;99.90;;;;;;4588774;19;19918;-36
2022/07/03 07:13:36;;;;;;;;;;;18.80;99.90;;;;;;4590010;19;19939;-34
2022/07/03 07:15:07;;;;;;;;;;;18.80;99.90;;;;;;4592344;19;19915;-38
2022/07/03 07:16:38;;;;;;;;;;;18.90;99.90;;;;;;4591887;19;19915;-37
2022/07/03 07:18:09;;;;;;;;;;;18.90;99.90;;;;;;4592751;19;19925;-34
2022/07/03 07:19:40;;;;;;;;;;;18.90;99.90;;;;;;4592168;19;19915;-35
2022/07/03 07:21:11;;;;;;;;;;;18.90;99.90;;;;;;4592375;19;19915;-32
2022/07/03 07:22:42;;;;;;;;;;;18.90;99.90;;;;;;4592954;19;20333;-32
2022/07/03 07:24:13;;;;;;;;;;;18.90;99.90;;;;;;4591564;19;19911;-35
2022/07/03 07:25:44;;;;;;;;;;;19.00;99.90;;;;;;4591361;19;19923;-37
2022/07/03 07:27:14;;;;;;;;;;;19.00;99.90;;;;;;4591153;19;19918;-34
2022/07/03 07:28:46;;;;;;;;;;;19.00;99.90;;;;;;4592784;19;19919;-35
2022/07/03 07:30:17;;;;;;;;;;;19.00;99.90;;;;;;4591636;19;19919;-33
2022/07/03 07:31:48;;;;;;;;;;;19.00;99.90;;;;;;4592413;19;19937;-36
2022/07/03 07:33:19;;;;;;;;;;;19.00;99.90;;;;;;4592443;19;19911;-38
2022/07/03 07:34:51;;;;;;;;;;;19.00;99.90;;;;;;4591820;19;19951;-32
2022/07/03 07:36:22;;;;;;;;;;;19.10;99.90;;;;;;4591539;19;19915;-37
2022/07/03 07:37:52;;;;;;;;;;;19.00;99.90;;;;;;4591442;19;19915;-37
2022/07/03 07:39:23;;;;;;;;;;;19.10;99.90;;;;;;4590551;19;20304;-32
2022/07/03 07:40:55;;;;;;;;;;;19.00;99.90;;;;;;4590513;19;20266;-33
2022/07/03 07:42:27;;;;;;;;;;;19.10;99.90;;;;;;4592628;19;19934;-35
2022/07/03 07:44:02;;;;;;;;;;;19.10;99.90;;;;;;4589078;19;20288;-34
2022/07/03 07:45:33;;;;;;;;;;;19.20;99.90;;;;;;4591533;19;19986;-37
2022/07/03 07:47:05;;;;;;;;;;;19.20;99.90;;;;;;4592245;19;19914;-36
2022/07/03 07:48:36;;;;;;;;;;;19.20;99.90;;;;;;4591887;19;19932;-35
2022/07/03 07:50:07;;;;;;;;;;;19.20;99.90;;;;;;4591615;19;20591;-32
2022/07/03 07:51:38;;;;;;;;;;;19.20;99.90;;;;;;4591216;19;19923;-35
2022/07/03 07:53:09;;;;;;;;;;;19.30;99.90;;;;;;4592119;19;19938;-33
2022/07/03 07:54:40;;;;;;;;;;;19.30;99.90;;;;;;4590519;19;20332;-34
2022/07/03 07:56:11;;;;;;;;;;;19.30;99.90;;;;;;4590496;19;19928;-36
2022/07/03 07:57:42;;;;;;;;;;;19.20;99.90;;;;;;4590874;19;19919;-40
2022/07/03 07:59:13;;;;;;;;;;;19.20;99.90;;;;;;4590632;19;19936;-40
2022/07/03 08:06:13;;;;;;;;;;;19.30;99.90;;;;;;4591694;19;19917;-36
2022/07/03 08:07:44;;;;;;;;;;;19.30;99.90;;;;;;4591559;19;19918;-42
2022/07/03 08:09:15;;;;;;;;;;;19.30;99.90;;;;;;4591873;19;19923;-34
2022/07/03 08:10:47;;;;;;;;;;;19.30;99.90;;;;;;4591695;19;19919;-34
2022/07/03 08:12:19;;;;;;;;;;;19.40;99.90;;;;;;4590316;19;19919;-31
2022/07/03 08:13:49;;;;;;;;;;;19.40;99.90;;;;;;4591021;19;19918;-32
2022/07/03 08:15:20;;;;;;;;;;;19.40;99.90;;;;;;4590551;19;19930;-34
2022/07/03 08:16:52;;;;;;;;;;;19.40;99.90;;;;;;4591909;19;20372;-41
2022/07/03 08:18:23;;;;;;;;;;;19.40;99.90;;;;;;4592323;19;19931;-34
2022/07/03 08:19:54;;;;;;;;;;;19.40;99.90;;;;;;4591645;19;19911;-37
2022/07/03 08:21:25;;;;;;;;;;;19.40;99.90;;;;;;4593496;19;19910;-33
2022/07/03 08:22:56;;;;;;;;;;;19.40;99.90;;;;;;4591776;19;19931;-34
2022/07/03 08:24:27;;;;;;;;;;;19.40;99.90;;;;;;4589634;19;19922;-36
2022/07/03 08:25:58;;;;;;;;;;;19.50;99.90;;;;;;4590755;19;19911;-34
2022/07/03 08:27:29;;;;;;;;;;;19.50;99.90;;;;;;4591389;19;19923;-34
2022/07/03 08:29:00;;;;;;;;;;;19.40;99.90;;;;;;4590846;19;19919;-33
2022/07/03 08:30:31;;;;;;;;;;;19.50;99.90;;;;;;4590948;19;20363;-37
2022/07/03 08:32:03;;;;;;;;;;;19.50;99.90;;;;;;4591364;19;19933;-37
2022/07/03 08:33:33;;;;;;;;;;;19.50;99.90;;;;;;4591864;19;19922;-32
2022/07/03 08:35:05;;;;;;;;;;;19.50;99.90;;;;;;4590830;19;19918;-34
2022/07/03 08:36:36;;;;;;;;;;;19.50;99.90;;;;;;4590990;19;20274;-33
2022/07/03 08:38:07;;;;;;;;;;;19.50;99.90;;;;;;4589804;19;19911;-35
2022/07/03 08:39:38;;;;;;;;;;;19.50;99.90;;;;;;4589651;19;20269;-35
2022/07/03 08:41:09;;;;;;;;;;;19.60;99.90;;;;;;4590715;19;19915;-33
2022/07/03 08:42:42;;;;;;;;;;;19.60;99.90;;;;;;4589954;19;19926;-35
2022/07/03 08:44:13;;;;;;;;;;;19.70;99.90;;;;;;4590835;19;19919;-37
2022/07/03 08:45:44;;;;;;;;;;;19.70;99.90;;;;;;4589933;19;19918;-36
2022/07/03 08:47:15;;;;;;;;;;;19.60;99.90;;;;;;4589861;19;19915;-35
2022/07/03 08:48:46;;;;;;;;;;;19.70;99.90;;;;;;4589710;19;19957;-32
2022/07/03 08:50:18;;;;;;;;;;;19.70;99.90;;;;;;4590202;19;19918;-35
2022/07/03 08:51:49;;;;;;;;;;;19.70;99.90;;;;;;4590368;19;19975;-33
2022/07/03 08:53:20;;;;;;;;;;;19.70;99.90;;;;;;4589719;19;19919;-33
2022/07/03 08:54:51;;;;;;;;;;;19.70;99.90;;;;;;4590314;19;19986;-35
2022/07/03 08:56:22;;;;;;;;;;;19.80;99.90;;;;;;4590772;19;19939;-33
2022/07/03 08:57:53;;;;;;;;;;;19.70;99.90;;;;;;4587894;19;19922;-38
2022/07/03 08:59:24;;;;;;;;;;;19.80;99.90;;;;;;4586485;19;20337;-32
2022/07/03 09:00:55;;;;;;;;;;;19.80;99.90;;;;;;4589484;19;19919;-32
2022/07/03 09:02:26;;;;;;;;;;;19.80;99.90;;;;;;4589466;19;19926;-36
2022/07/03 09:03:58;;;;;;;;;;;19.80;99.90;;;;;;4589563;19;20244;-31
2022/07/03 09:05:29;;;;;;;;;;;19.80;99.90;;;;;;4588812;19;19946;-33